createdAt,value
2018-12-16T00:00:01.233Z,27.23
2018-12-16T00:02:28.727Z,25.27
2018-12-16T00:04:56.167Z,22.27
2018-12-16T00:07:23.644Z,25.53
2018-12-16T00:09:51.143Z,24.13
2018-12-16T00:12:18.619Z,24.90
2018-12-16T00:14:46.083Z,22.90
2018-12-16T00:17:13.538Z,23.97
2018-12-16T00:19:41.016Z,23.93
2018-12-16T00:22:08.463Z,22.83
2018-12-16T00:24:35.969Z,25.00
2018-12-16T00:27:11.099Z,23.53
2018-12-16T00:29:38.737Z,24.63
2018-12-16T00:32:06.360Z,22.50
2018-12-16T00:34:33.815Z,23.80
2018-12-16T00:37:01.310Z,22.47
2018-12-16T00:39:28.778Z,24.87
2018-12-16T00:41:56.223Z,24.93
2018-12-16T00:44:23.703Z,24.27
2018-12-16T00:46:51.180Z,26.97
2018-12-16T00:49:18.638Z,23.57
2018-12-16T00:51:46.088Z,23.70
2018-12-16T00:54:13.598Z,26.03
2018-12-16T00:56:41.064Z,27.17
2018-12-16T00:59:08.540Z,24.50
2018-12-16T01:01:36.002Z,26.10
2018-12-16T01:04:03.465Z,24.43
2018-12-16T01:06:31.008Z,23.97
2018-12-16T01:08:58.471Z,22.80
2018-12-16T01:11:25.926Z,27.80
2018-12-16T01:13:53.402Z,25.33
2018-12-16T01:16:20.863Z,27.07
2018-12-16T01:18:48.313Z,24.07
2018-12-16T01:21:15.792Z,25.27
2018-12-16T01:23:43.248Z,22.97
2018-12-16T01:26:10.722Z,26.80
2018-12-16T01:28:38.176Z,25.00
2018-12-16T01:31:05.665Z,25.00
2018-12-16T01:33:33.196Z,24.50
2018-12-16T01:36:00.651Z,25.33
2018-12-16T01:38:28.102Z,24.33
2018-12-16T01:40:55.575Z,22.40
2018-12-16T01:43:23.063Z,26.27
2018-12-16T01:45:50.532Z,23.67
2018-12-16T01:48:17.979Z,23.63
2018-12-16T01:50:45.478Z,27.63
2018-12-16T01:53:12.947Z,24.80
2018-12-16T01:55:40.418Z,23.97
2018-12-16T01:58:07.951Z,28.13
2018-12-16T02:00:35.494Z,25.87
2018-12-16T02:03:02.995Z,28.03
2018-12-16T02:05:30.467Z,27.77
2018-12-16T02:07:57.943Z,29.00
2018-12-16T02:10:26.310Z,27.47
2018-12-16T02:12:53.814Z,28.13
2018-12-16T02:15:21.280Z,28.20
2018-12-16T02:17:48.741Z,28.33
2018-12-16T02:20:16.203Z,31.40
2018-12-16T02:22:43.694Z,31.03
2018-12-16T02:25:11.138Z,33.40
2018-12-16T02:27:38.606Z,32.07
2018-12-16T02:30:08.283Z,34.20
2018-12-16T02:32:35.913Z,32.07
2018-12-16T02:35:04.564Z,33.43
2018-12-16T02:37:32.047Z,33.53
2018-12-16T02:39:59.510Z,33.83
2018-12-16T02:42:26.956Z,30.80
2018-12-16T02:44:54.431Z,33.00
2018-12-16T02:47:21.872Z,31.87
2018-12-16T02:49:49.359Z,31.17
2018-12-16T02:52:16.821Z,31.60
2018-12-16T02:54:44.385Z,33.37
2018-12-16T02:57:11.861Z,34.60
2018-12-16T02:59:39.343Z,31.23
2018-12-16T03:02:06.791Z,35.17
2018-12-16T03:04:34.267Z,32.27
2018-12-16T03:07:01.716Z,34.70
2018-12-16T03:09:29.183Z,34.33
2018-12-16T03:11:56.665Z,36.13
2018-12-16T03:14:24.128Z,36.17
2018-12-16T03:16:51.582Z,32.37
2018-12-16T03:19:19.089Z,32.07
2018-12-16T03:21:46.522Z,32.83
2018-12-16T03:24:14.001Z,34.47
2018-12-16T03:26:41.486Z,33.80
2018-12-16T03:29:08.971Z,36.03
2018-12-16T03:31:36.419Z,34.40
2018-12-16T03:34:03.887Z,31.67
2018-12-16T03:36:31.363Z,36.00
2018-12-16T03:38:58.823Z,34.53
2018-12-16T03:41:26.411Z,35.70
2018-12-16T03:43:53.876Z,34.07
2018-12-16T03:46:21.350Z,36.57
2018-12-16T03:48:48.787Z,35.63
2018-12-16T03:51:16.287Z,33.67
2018-12-16T03:53:43.742Z,33.03
2018-12-16T03:56:11.220Z,36.33
2018-12-16T03:58:46.372Z,35.33
2018-12-16T04:01:13.839Z,36.73
2018-12-16T04:03:41.286Z,33.73
2018-12-16T04:06:08.759Z,34.93
2018-12-16T04:08:36.209Z,38.83
2018-12-16T04:11:03.697Z,38.87
2018-12-16T04:13:31.142Z,34.77
2018-12-16T04:15:58.612Z,38.33
2018-12-16T04:18:26.061Z,34.27
2018-12-16T04:20:53.527Z,35.30
2018-12-16T04:23:27.367Z,33.70
2018-12-16T04:25:50.447Z,36.40
2018-12-16T04:28:17.988Z,36.33
2018-12-16T04:30:45.542Z,33.90
2018-12-16T04:33:13.024Z,32.77
2018-12-16T04:35:40.496Z,35.43
2018-12-16T04:38:07.974Z,35.97
2018-12-16T04:40:35.450Z,34.07
2018-12-16T04:43:02.941Z,34.67
2018-12-16T04:45:30.399Z,36.53
2018-12-16T04:47:57.879Z,37.33
2018-12-16T04:50:25.337Z,36.17
2018-12-16T04:52:52.872Z,36.77
2018-12-16T04:55:20.350Z,33.73
2018-12-16T04:57:47.798Z,36.43
2018-12-16T05:00:15.284Z,33.70
2018-12-16T05:02:42.829Z,34.57
2018-12-16T05:05:10.290Z,29.90
2018-12-16T05:07:37.746Z,31.17
2018-12-16T05:10:17.055Z,32.47
2018-12-16T05:12:44.519Z,31.40
2018-12-16T05:15:12.070Z,38.70
2018-12-16T05:17:39.515Z,39.10
2018-12-16T05:20:06.984Z,33.90
2018-12-16T05:22:34.426Z,35.30
2018-12-16T05:25:01.906Z,33.00
2018-12-16T05:27:29.344Z,35.77
2018-12-16T05:29:56.815Z,32.70
2018-12-16T05:32:24.265Z,31.27
2018-12-16T05:34:51.755Z,34.07
2018-12-16T05:37:19.210Z,32.33
2018-12-16T05:39:46.712Z,34.77
2018-12-16T05:42:14.154Z,36.17
2018-12-16T05:44:41.638Z,32.13
2018-12-16T05:47:09.090Z,33.03
2018-12-16T05:49:36.559Z,34.27
2018-12-16T05:52:04.047Z,34.30
2018-12-16T05:54:31.496Z,35.30
2018-12-16T05:56:58.974Z,33.23
2018-12-16T05:59:26.425Z,35.17
2018-12-16T06:01:53.890Z,32.53
2018-12-16T06:04:21.345Z,35.67
2018-12-16T06:06:48.819Z,34.87
2018-12-16T06:09:16.263Z,34.00
2018-12-16T06:11:43.738Z,35.60
2018-12-16T06:14:11.434Z,32.07
2018-12-16T06:16:38.886Z,31.50
2018-12-16T06:19:06.374Z,34.13
2018-12-16T06:21:33.854Z,33.90
2018-12-16T06:24:01.342Z,31.40
2018-12-16T06:26:28.811Z,32.73
2018-12-16T06:28:56.281Z,33.73
2018-12-16T06:31:23.731Z,33.57
2018-12-16T06:33:51.217Z,34.57
2018-12-16T06:36:18.773Z,33.17
2018-12-16T06:38:46.230Z,31.00
2018-12-16T06:41:13.687Z,34.67
2018-12-16T06:43:41.193Z,32.40
2018-12-16T06:46:08.662Z,33.23
2018-12-16T06:48:36.123Z,32.77
2018-12-16T06:51:03.570Z,32.13
2018-12-16T06:53:31.066Z,31.13
2018-12-16T06:55:58.606Z,34.30
2018-12-16T06:58:26.091Z,31.47
2018-12-16T07:00:53.563Z,32.60
2018-12-16T07:03:21.039Z,47.93
2018-12-16T07:05:48.497Z,31.20
2018-12-16T07:08:15.980Z,35.13
2018-12-16T07:10:43.500Z,35.80
2018-12-16T07:13:10.976Z,31.70
2018-12-16T07:15:38.459Z,32.27
2018-12-16T07:18:05.955Z,32.37
2018-12-16T07:20:33.482Z,33.63
2018-12-16T07:23:01.019Z,33.37
2018-12-16T07:25:28.509Z,35.40
2018-12-16T07:27:56.010Z,31.10
2018-12-16T07:30:23.490Z,32.13
2018-12-16T07:32:50.975Z,29.73
2018-12-16T07:35:18.578Z,31.07
2018-12-16T07:37:46.055Z,29.80
2018-12-16T07:40:13.691Z,30.07
2018-12-16T07:42:41.198Z,34.47
2018-12-16T07:45:08.853Z,32.63
2018-12-16T07:47:36.307Z,32.43
2018-12-16T07:50:05.301Z,33.63
2018-12-16T07:52:32.918Z,34.97
2018-12-16T07:55:00.487Z,33.47
2018-12-16T07:57:27.975Z,33.50
2018-12-16T07:59:55.478Z,32.07
2018-12-16T08:02:22.964Z,31.53
2018-12-16T08:04:50.408Z,30.27
2018-12-16T08:07:17.896Z,32.27
2018-12-16T08:09:45.362Z,33.97
2018-12-16T08:12:12.919Z,32.63
2018-12-16T08:14:40.374Z,34.03
2018-12-16T08:17:07.873Z,32.87
2018-12-16T08:19:35.330Z,33.80
2018-12-16T08:22:02.843Z,32.30
2018-12-16T08:24:30.306Z,31.43
2018-12-16T08:26:57.825Z,37.13
2018-12-16T08:29:25.313Z,45.47
2018-12-16T08:31:52.811Z,36.37
2018-12-16T08:34:20.274Z,36.83
2018-12-16T08:36:47.751Z,41.37
2018-12-16T08:39:15.271Z,32.30
2018-12-16T08:41:42.737Z,35.13
2018-12-16T08:44:10.247Z,34.27
2018-12-16T08:46:37.710Z,37.63
2018-12-16T08:49:05.203Z,34.27
2018-12-16T08:51:32.670Z,34.13
2018-12-16T08:54:00.156Z,35.90
2018-12-16T08:56:27.702Z,35.63
2018-12-16T08:58:55.189Z,33.67
2018-12-16T09:01:22.670Z,34.90
2018-12-16T09:03:50.526Z,37.83
2018-12-16T09:06:17.986Z,34.30
2018-12-16T09:08:45.875Z,34.03
2018-12-16T09:11:13.351Z,36.13
2018-12-16T09:13:40.931Z,33.07
2018-12-16T09:16:08.394Z,33.97
2018-12-16T09:18:35.862Z,34.03
2018-12-16T09:21:03.360Z,37.60
2018-12-16T09:23:30.831Z,36.40
2018-12-16T09:25:58.316Z,34.80
2018-12-16T09:28:25.812Z,39.63
2018-12-16T09:30:58.006Z,34.83
2018-12-16T09:33:22.755Z,37.90
2018-12-16T09:35:50.235Z,34.90
2018-12-16T09:38:17.729Z,31.63
2018-12-16T09:40:45.211Z,32.83
2018-12-16T09:43:12.665Z,37.17
2018-12-16T09:45:40.166Z,34.20
2018-12-16T09:48:07.634Z,32.27
2018-12-16T09:50:35.102Z,32.27
2018-12-16T09:53:02.572Z,36.10
2018-12-16T09:55:30.078Z,38.33
2018-12-16T09:57:57.602Z,36.33
2018-12-16T10:00:25.087Z,29.23
2018-12-16T10:02:52.558Z,35.53
2018-12-16T10:05:20.236Z,30.83
2018-12-16T10:07:47.706Z,30.27
2018-12-16T10:10:15.188Z,33.83
2018-12-16T10:12:42.679Z,31.43
2018-12-16T10:15:10.219Z,31.10
2018-12-16T10:17:37.706Z,36.57
2018-12-16T10:20:07.538Z,37.13
2018-12-16T10:22:35.511Z,36.20
2018-12-16T10:25:03.551Z,31.50
2018-12-16T10:27:31.176Z,35.73
2018-12-16T10:29:58.667Z,34.47
2018-12-16T10:32:26.157Z,51.80
2018-12-16T10:34:53.616Z,54.27
2018-12-16T10:37:22.082Z,30.00
2018-12-16T10:39:49.535Z,37.93
2018-12-16T10:42:16.990Z,38.93
2018-12-16T10:44:44.477Z,40.10
2018-12-16T10:47:11.937Z,34.97
2018-12-16T10:49:39.526Z,35.87
2018-12-16T10:52:06.975Z,39.37
2018-12-16T10:54:34.465Z,39.63
2018-12-16T10:57:01.934Z,42.03
2018-12-16T10:59:29.407Z,33.57
2018-12-16T11:01:56.883Z,42.93
2018-12-16T11:04:24.418Z,44.23
2018-12-16T11:06:51.907Z,37.37
2018-12-16T11:09:19.367Z,67.03
2018-12-16T11:11:46.828Z,46.13
2018-12-16T11:14:14.330Z,53.83
2018-12-16T11:16:41.824Z,57.97
2018-12-16T11:19:09.294Z,40.33
2018-12-16T11:21:36.759Z,35.17
2018-12-16T11:24:04.357Z,33.27
2018-12-16T11:26:31.826Z,35.80
2018-12-16T11:28:59.301Z,34.10
2018-12-16T11:31:26.782Z,31.87
2018-12-16T11:33:54.255Z,32.27
2018-12-16T11:36:21.725Z,34.63
2018-12-16T11:38:49.222Z,36.33
2018-12-16T11:41:16.700Z,34.47
2018-12-16T11:43:44.161Z,29.20
2018-12-16T11:46:11.656Z,32.27
2018-12-16T11:48:39.105Z,32.60
2018-12-16T11:51:06.591Z,32.50
2018-12-16T11:53:34.043Z,30.87
2018-12-16T11:56:01.554Z,33.40
2018-12-16T11:58:29.010Z,35.67
2018-12-16T12:00:56.504Z,31.87
2018-12-16T12:03:23.961Z,28.80
2018-12-16T12:05:51.654Z,31.23
2018-12-16T12:08:19.218Z,34.03
2018-12-16T12:10:46.916Z,28.57
2018-12-16T12:13:14.386Z,33.53
2018-12-16T12:15:41.858Z,32.20
2018-12-16T12:18:09.331Z,34.10
2018-12-16T12:20:36.803Z,29.90
2018-12-16T12:23:04.291Z,33.23
2018-12-16T12:25:31.743Z,39.77
2018-12-16T12:27:59.213Z,33.87
2018-12-16T12:30:26.688Z,32.67
2018-12-16T12:32:54.178Z,33.37
2018-12-16T12:35:21.635Z,38.53
2018-12-16T12:37:49.219Z,35.97
2018-12-16T12:40:16.662Z,32.53
2018-12-16T12:42:44.242Z,30.37
2018-12-16T12:45:11.722Z,35.47
2018-12-16T12:47:39.176Z,37.07
2018-12-16T12:50:07.017Z,34.07
2018-12-16T12:52:34.480Z,32.13
2018-12-16T12:55:01.981Z,33.13
2018-12-16T12:57:29.486Z,34.17
2018-12-16T12:59:56.982Z,31.63
2018-12-16T13:02:24.425Z,36.07
2018-12-16T13:04:51.899Z,37.47
2018-12-16T13:07:19.418Z,33.40
2018-12-16T13:09:46.882Z,32.93
2018-12-16T13:12:14.502Z,34.70
2018-12-16T13:14:41.975Z,32.70
2018-12-16T13:17:09.728Z,33.27
2018-12-16T13:19:37.208Z,37.70
2018-12-16T13:22:04.659Z,34.80
2018-12-16T13:24:32.147Z,35.17
2018-12-16T13:26:59.692Z,34.73
2018-12-16T13:29:27.192Z,34.23
2018-12-16T13:31:54.650Z,35.13
2018-12-16T13:34:22.127Z,35.23
2018-12-16T13:36:49.736Z,37.97
2018-12-16T13:39:17.206Z,37.57
2018-12-16T13:41:44.714Z,33.20
2018-12-16T13:44:12.177Z,34.93
2018-12-16T13:46:39.646Z,35.30
2018-12-16T13:49:08.781Z,36.43
2018-12-16T13:51:36.242Z,35.83
2018-12-16T13:54:04.577Z,36.33
2018-12-16T13:56:32.797Z,35.13
2018-12-16T13:59:00.247Z,34.03
2018-12-16T14:01:27.743Z,33.17
2018-12-16T14:03:58.462Z,35.80
2018-12-16T14:06:25.939Z,33.03
2018-12-16T14:08:53.498Z,37.47
2018-12-16T14:11:21.175Z,38.93
2018-12-16T14:13:48.636Z,38.47
2018-12-16T14:16:16.092Z,39.93
2018-12-16T14:18:43.567Z,36.90
2018-12-16T14:21:11.004Z,38.63
2018-12-16T14:23:38.545Z,38.40
2018-12-16T14:26:06.026Z,36.83
2018-12-16T14:28:33.503Z,36.20
2018-12-16T14:31:00.968Z,37.27
2018-12-16T14:33:28.449Z,34.60
2018-12-16T14:35:55.927Z,38.37
2018-12-16T14:38:23.676Z,40.17
2018-12-16T14:40:51.154Z,37.63
2018-12-16T14:43:18.606Z,38.40
2018-12-16T14:45:46.077Z,36.80
2018-12-16T14:48:13.574Z,38.93
2018-12-16T14:50:41.033Z,39.97
2018-12-16T14:53:08.511Z,39.80
2018-12-16T14:55:35.978Z,36.67
2018-12-16T14:58:03.472Z,39.07
2018-12-16T15:00:30.950Z,40.53
2018-12-16T15:02:58.408Z,34.40
2018-12-16T15:05:25.917Z,38.73
2018-12-16T15:07:53.399Z,38.30
2018-12-16T15:10:20.882Z,38.50
2018-12-16T15:12:48.394Z,38.27
2018-12-16T15:15:16.855Z,37.63
2018-12-16T15:17:44.375Z,36.30
2018-12-16T15:20:11.859Z,38.03
2018-12-16T15:22:39.445Z,34.60
2018-12-16T15:25:07.322Z,38.17
2018-12-16T15:27:34.780Z,32.23
2018-12-16T15:30:02.544Z,42.17
2018-12-16T15:32:30.016Z,37.57
2018-12-16T15:34:57.479Z,41.73
2018-12-16T15:37:25.077Z,38.37
2018-12-16T15:39:52.532Z,38.47
2018-12-16T15:42:20.020Z,38.17
2018-12-16T15:44:47.520Z,34.57
2018-12-16T15:47:15.075Z,37.63
2018-12-16T15:49:42.534Z,39.70
2018-12-16T15:52:09.989Z,38.57
2018-12-16T15:54:37.503Z,35.80
2018-12-16T15:57:07.187Z,36.40
2018-12-16T15:59:35.714Z,39.80
2018-12-16T16:02:03.826Z,37.87
2018-12-16T16:04:31.409Z,38.53
2018-12-16T16:06:58.920Z,38.10
2018-12-16T16:09:26.484Z,33.93
2018-12-16T16:11:54.484Z,39.27
2018-12-16T16:14:21.962Z,40.97
2018-12-16T16:16:50.651Z,42.47
2018-12-16T16:19:18.142Z,39.40
2018-12-16T16:21:49.394Z,37.80
2018-12-16T16:24:17.224Z,37.67
2018-12-16T16:26:46.260Z,39.00
2018-12-16T16:29:14.803Z,40.13
2018-12-16T16:31:44.196Z,36.03
2018-12-16T16:34:11.677Z,33.37
2018-12-16T16:36:39.202Z,34.27
2018-12-16T16:39:09.270Z,38.87
2018-12-16T16:41:36.777Z,43.53
2018-12-16T16:44:05.609Z,42.23
2018-12-16T16:46:33.144Z,40.83
2018-12-16T16:49:03.249Z,50.27
2018-12-16T16:51:31.558Z,36.57
2018-12-16T16:54:08.190Z,39.77
2018-12-16T16:56:36.700Z,32.83
2018-12-16T16:59:04.183Z,36.17
2018-12-16T17:01:31.680Z,46.07
2018-12-16T17:03:59.175Z,41.43
2018-12-16T17:06:26.645Z,37.37
2018-12-16T17:08:54.136Z,34.23
2018-12-16T17:11:22.202Z,32.40
2018-12-16T17:13:50.008Z,34.67
2018-12-16T17:16:17.474Z,37.47
2018-12-16T17:18:45.499Z,35.17
2018-12-16T17:21:12.971Z,33.30
2018-12-16T17:23:40.421Z,33.20
2018-12-16T17:26:07.936Z,35.57
2018-12-16T17:28:35.381Z,35.43
2018-12-16T17:31:02.993Z,35.27
2018-12-16T17:33:30.438Z,34.67
2018-12-16T17:35:57.991Z,32.23
2018-12-16T17:38:25.494Z,33.07
2018-12-16T17:40:53.056Z,37.43
2018-12-16T17:43:20.552Z,36.80
2018-12-16T17:45:48.040Z,34.20
2018-12-16T17:48:15.508Z,33.70
2018-12-16T17:50:43.084Z,35.97
2018-12-16T17:53:10.588Z,36.13
2018-12-16T17:55:38.042Z,36.23
2018-12-16T17:58:05.642Z,33.30
2018-12-16T18:00:33.150Z,43.37
2018-12-16T18:03:00.599Z,40.73
2018-12-16T18:05:28.094Z,36.27
2018-12-16T18:07:55.592Z,35.87
2018-12-16T18:10:23.094Z,35.70
2018-12-16T18:12:50.543Z,35.30
2018-12-16T18:15:18.009Z,40.03
2018-12-16T18:17:45.519Z,35.00
2018-12-16T18:20:13.089Z,34.77
2018-12-16T18:22:40.669Z,40.90
2018-12-16T18:25:08.139Z,33.90
2018-12-16T18:27:35.633Z,35.20
2018-12-16T18:30:05.748Z,36.30
2018-12-16T18:32:33.251Z,33.20
2018-12-16T18:35:00.763Z,35.30
2018-12-16T18:37:28.443Z,36.70
2018-12-16T18:39:55.907Z,34.60
2018-12-16T18:42:23.370Z,31.60
2018-12-16T18:44:50.847Z,36.97
2018-12-16T18:47:18.382Z,37.27
2018-12-16T18:49:45.878Z,37.23
2018-12-16T18:52:13.330Z,33.70
2018-12-16T18:54:40.807Z,32.60
2018-12-16T18:57:08.457Z,35.53
2018-12-16T18:59:35.969Z,35.63
2018-12-16T19:02:04.105Z,33.37
2018-12-16T19:04:31.739Z,32.57
2018-12-16T19:06:59.230Z,32.60
2018-12-16T19:09:26.759Z,37.10
2018-12-16T19:11:54.323Z,35.60
2018-12-16T19:14:22.050Z,33.23
2018-12-16T19:16:49.647Z,32.63
2018-12-16T19:19:17.602Z,34.80
2018-12-16T19:21:45.061Z,33.43
2018-12-16T19:24:12.624Z,32.23
2018-12-16T19:26:40.144Z,38.83
2018-12-16T19:29:07.662Z,32.63
2018-12-16T19:31:35.928Z,34.03
2018-12-16T19:34:03.538Z,28.57
2018-12-16T19:36:31.012Z,31.00
2018-12-16T19:38:58.492Z,30.60
2018-12-16T19:41:25.985Z,28.33
2018-12-16T19:43:53.445Z,29.50
2018-12-16T19:46:21.190Z,26.47
2018-12-16T19:48:48.678Z,28.20
2018-12-16T19:51:16.166Z,25.60
2018-12-16T19:53:43.691Z,30.03
2018-12-16T19:56:11.178Z,27.33
2018-12-16T19:58:38.941Z,29.17
2018-12-16T20:01:06.614Z,31.67
2018-12-16T20:03:34.088Z,28.27
2018-12-16T20:06:07.398Z,29.70
2018-12-16T20:08:34.898Z,28.33
2018-12-16T20:11:02.358Z,25.97
2018-12-16T20:13:29.874Z,40.77
2018-12-16T20:16:01.511Z,40.00
2018-12-16T20:18:27.001Z,37.13
2018-12-16T20:20:54.472Z,29.60
2018-12-16T20:23:21.961Z,28.97
2018-12-16T20:25:49.515Z,28.30
2018-12-16T20:28:16.996Z,27.60
2018-12-16T20:30:44.466Z,32.27
2018-12-16T20:33:11.927Z,29.67
2018-12-16T20:35:39.403Z,31.73
2018-12-16T20:38:07.058Z,27.47
2018-12-16T20:40:34.635Z,26.60
2018-12-16T20:43:02.187Z,33.40
2018-12-16T20:45:29.662Z,30.17
2018-12-16T20:47:57.145Z,36.23
2018-12-16T20:50:24.621Z,33.80
2018-12-16T20:52:52.077Z,34.13
2018-12-16T20:55:19.595Z,32.70
2018-12-16T20:57:47.062Z,28.77
2018-12-16T21:00:14.553Z,31.73
2018-12-16T21:02:42.006Z,27.87
2018-12-16T21:05:09.677Z,31.27
2018-12-16T21:07:37.136Z,32.40
2018-12-16T21:10:04.803Z,35.00
2018-12-16T21:12:37.907Z,31.53
2018-12-16T21:15:11.122Z,29.57
2018-12-16T21:17:44.378Z,33.07
2018-12-16T21:20:11.875Z,32.53
2018-12-16T21:22:39.342Z,32.37
2018-12-16T21:25:06.974Z,35.43
2018-12-16T21:27:34.818Z,34.27
2018-12-16T21:30:02.463Z,28.33
2018-12-16T21:32:29.934Z,30.07
2018-12-16T21:34:57.413Z,31.67
2018-12-16T21:37:24.907Z,30.93
2018-12-16T21:39:52.368Z,30.53
2018-12-16T21:42:19.866Z,28.17
2018-12-16T21:44:47.322Z,29.07
2018-12-16T21:47:14.811Z,33.67
2018-12-16T21:49:42.258Z,32.33
2018-12-16T21:52:09.740Z,34.27
2018-12-16T21:54:37.183Z,33.83
2018-12-16T21:57:04.672Z,29.37
2018-12-16T21:59:32.521Z,31.67
2018-12-16T22:02:00.002Z,35.80
2018-12-16T22:04:27.438Z,29.73
2018-12-16T22:06:54.948Z,31.83
2018-12-16T22:09:22.400Z,32.17
2018-12-16T22:11:49.890Z,33.97
2018-12-16T22:14:17.342Z,29.27
2018-12-16T22:16:44.844Z,28.17
2018-12-16T22:19:12.309Z,27.37
2018-12-16T22:21:39.782Z,29.43
2018-12-16T22:24:07.255Z,31.13
2018-12-16T22:26:34.723Z,27.37
2018-12-16T22:29:02.749Z,25.87
2018-12-16T22:31:30.227Z,25.90
2018-12-16T22:33:57.724Z,28.17
2018-12-16T22:36:25.267Z,26.90
2018-12-16T22:38:52.757Z,32.13
2018-12-16T22:41:20.222Z,32.00
2018-12-16T22:43:47.982Z,29.63
2018-12-16T22:46:15.530Z,25.50
2018-12-16T22:48:43.028Z,23.20
2018-12-16T22:51:10.792Z,25.67
2018-12-16T22:53:38.245Z,27.30
2018-12-16T22:56:05.705Z,23.50
2018-12-16T22:58:33.174Z,29.63
2018-12-16T23:01:06.248Z,27.33
2018-12-16T23:03:33.809Z,23.83
2018-12-16T23:06:02.278Z,24.67
2018-12-16T23:08:29.803Z,22.57
2018-12-16T23:10:57.296Z,23.90
2018-12-16T23:13:24.747Z,26.53
2018-12-16T23:15:52.223Z,29.10
2018-12-16T23:18:19.698Z,24.07
2018-12-16T23:20:47.155Z,24.30
2018-12-16T23:23:15.214Z,26.07
2018-12-16T23:25:42.708Z,24.77
2018-12-16T23:28:10.166Z,28.50
2018-12-16T23:30:37.659Z,27.23
2018-12-16T23:33:05.123Z,22.53
2018-12-16T23:35:32.597Z,28.10
2018-12-16T23:38:00.067Z,25.27
2018-12-16T23:40:27.530Z,28.23
2018-12-16T23:42:54.999Z,23.63
2018-12-16T23:45:22.486Z,22.30
2018-12-16T23:47:49.935Z,23.00
2018-12-16T23:50:17.426Z,22.87
2018-12-16T23:52:44.900Z,19.63
2018-12-16T23:55:12.432Z,22.03
2018-12-16T23:57:39.909Z,22.80
